sensor_id;sensor_type;location;lat;lon;timestamp;P1;durP1;ratioP1;P2;durP2;ratioP2
29500;SDS011;16450;50.288;10.966;2022-10-16T00:00:58;2.30;;;1.50;;
29500;SDS011;16450;50.288;10.966;2022-10-16T00:04:04;3.37;;;1.60;;
29500;SDS011;16450;50.288;10.966;2022-10-16T00:07:04;2.67;;;1.80;;
29500;SDS011;16450;50.288;10.966;2022-10-16T00:10:05;4.13;;;1.70;;
29500;SDS011;16450;50.288;10.966;2022-10-16T00:13:06;4.87;;;1.80;;
29500;SDS011;16450;50.288;10.966;2022-10-16T00:16:07;3.37;;;1.80;;
29500;SDS011;16450;50.288;10.966;2022-10-16T00:19:10;5.80;;;1.70;;
29500;SDS011;16450;50.288;10.966;2022-10-16T00:22:12;3.83;;;1.93;;
29500;SDS011;16450;50.288;10.966;2022-10-16T00:25:12;2.07;;;1.70;;
29500;SDS011;16450;50.288;10.966;2022-10-16T00:28:13;4.03;;;2.10;;
29500;SDS011;16450;50.288;10.966;2022-10-16T00:31:14;4.67;;;2.00;;
29500;SDS011;16450;50.288;10.966;2022-10-16T00:34:15;7.77;;;2.00;;
29500;SDS011;16450;50.288;10.966;2022-10-16T00:37:16;2.30;;;1.80;;
29500;SDS011;16450;50.288;10.966;2022-10-16T00:40:16;2.40;;;1.93;;
29500;SDS011;16450;50.288;10.966;2022-10-16T00:43:37;3.97;;;1.60;;
29500;SDS011;16450;50.288;10.966;2022-10-16T00:46:43;1.97;;;1.60;;
29500;SDS011;16450;50.288;10.966;2022-10-16T00:49:44;6.70;;;2.00;;
29500;SDS011;16450;50.288;10.966;2022-10-16T00:52:46;3.50;;;1.80;;
29500;SDS011;16450;50.288;10.966;2022-10-16T00:55:49;3.53;;;2.07;;
29500;SDS011;16450;50.288;10.966;2022-10-16T00:58:50;4.10;;;1.43;;
29500;SDS011;16450;50.288;10.966;2022-10-16T01:01:51;1.60;;;1.50;;
29500;SDS011;16450;50.288;10.966;2022-10-16T01:04:53;2.90;;;1.70;;
29500;SDS011;16450;50.288;10.966;2022-10-16T01:08:13;3.47;;;1.77;;
29500;SDS011;16450;50.288;10.966;2022-10-16T01:11:22;3.63;;;1.63;;
29500;SDS011;16450;50.288;10.966;2022-10-16T01:21:10;1.93;;;1.50;;
29500;SDS011;16450;50.288;10.966;2022-10-16T01:27:38;1.93;;;1.40;;
29500;SDS011;16450;50.288;10.966;2022-10-16T01:30:41;2.03;;;1.50;;
29500;SDS011;16450;50.288;10.966;2022-10-16T01:33:45;2.83;;;1.70;;
29500;SDS011;16450;50.288;10.966;2022-10-16T01:36:58;3.83;;;1.90;;
29500;SDS011;16450;50.288;10.966;2022-10-16T01:40:05;1.70;;;1.60;;
29500;SDS011;16450;50.288;10.966;2022-10-16T01:43:19;2.80;;;1.90;;
29500;SDS011;16450;50.288;10.966;2022-10-16T01:46:24;1.70;;;1.60;;
29500;SDS011;16450;50.288;10.966;2022-10-16T01:49:28;2.23;;;1.50;;
29500;SDS011;16450;50.288;10.966;2022-10-16T01:52:32;3.30;;;1.63;;
29500;SDS011;16450;50.288;10.966;2022-10-16T01:55:37;2.60;;;1.80;;
29500;SDS011;16450;50.288;10.966;2022-10-16T01:58:46;3.07;;;1.40;;
29500;SDS011;16450;50.288;10.966;2022-10-16T02:02:14;3.57;;;1.53;;
29500;SDS011;16450;50.288;10.966;2022-10-16T02:08:27;4.37;;;1.60;;
29500;SDS011;16450;50.288;10.966;2022-10-16T02:11:29;2.90;;;1.70;;
29500;SDS011;16450;50.288;10.966;2022-10-16T02:14:30;6.03;;;1.77;;
29500;SDS011;16450;50.288;10.966;2022-10-16T02:17:31;2.93;;;1.63;;
29500;SDS011;16450;50.288;10.966;2022-10-16T02:20:33;2.37;;;1.73;;
29500;SDS011;16450;50.288;10.966;2022-10-16T02:23:51;3.47;;;1.90;;
29500;SDS011;16450;50.288;10.966;2022-10-16T02:27:05;1.73;;;1.60;;
29500;SDS011;16450;50.288;10.966;2022-10-16T02:30:13;6.07;;;1.80;;
29500;SDS011;16450;50.288;10.966;2022-10-16T02:33:33;3.77;;;1.77;;
29500;SDS011;16450;50.288;10.966;2022-10-16T02:36:37;3.03;;;1.60;;
29500;SDS011;16450;50.288;10.966;2022-10-16T02:39:39;9.33;;;1.90;;
29500;SDS011;16450;50.288;10.966;2022-10-16T02:42:41;3.00;;;1.53;;
29500;SDS011;16450;50.288;10.966;2022-10-16T02:45:41;2.10;;;1.50;;
29500;SDS011;16450;50.288;10.966;2022-10-16T02:48:42;1.73;;;1.60;;
29500;SDS011;16450;50.288;10.966;2022-10-16T02:51:43;2.80;;;1.73;;
29500;SDS011;16450;50.288;10.966;2022-10-16T02:54:43;2.23;;;1.40;;
29500;SDS011;16450;50.288;10.966;2022-10-16T02:57:44;4.83;;;1.63;;
29500;SDS011;16450;50.288;10.966;2022-10-16T03:00:45;2.40;;;1.50;;
29500;SDS011;16450;50.288;10.966;2022-10-16T03:03:46;3.10;;;1.10;;
29500;SDS011;16450;50.288;10.966;2022-10-16T03:06:46;3.63;;;1.30;;
29500;SDS011;16450;50.288;10.966;2022-10-16T03:09:47;5.03;;;1.43;;
29500;SDS011;16450;50.288;10.966;2022-10-16T03:12:47;1.50;;;1.10;;
29500;SDS011;16450;50.288;10.966;2022-10-16T03:15:48;1.17;;;1.03;;
29500;SDS011;16450;50.288;10.966;2022-10-16T03:18:49;1.27;;;0.90;;
29500;SDS011;16450;50.288;10.966;2022-10-16T03:21:50;1.83;;;1.00;;
29500;SDS011;16450;50.288;10.966;2022-10-16T03:24:50;1.17;;;0.90;;
29500;SDS011;16450;50.288;10.966;2022-10-16T03:27:51;0.97;;;0.80;;
29500;SDS011;16450;50.288;10.966;2022-10-16T03:30:52;3.30;;;1.40;;
29500;SDS011;16450;50.288;10.966;2022-10-16T03:33:53;3.10;;;0.97;;
29500;SDS011;16450;50.288;10.966;2022-10-16T03:36:53;1.43;;;1.10;;
29500;SDS011;16450;50.288;10.966;2022-10-16T03:39:54;1.40;;;1.00;;
29500;SDS011;16450;50.288;10.966;2022-10-16T03:42:54;1.27;;;1.07;;
29500;SDS011;16450;50.288;10.966;2022-10-16T03:45:57;1.60;;;1.30;;
29500;SDS011;16450;50.288;10.966;2022-10-16T03:48:57;2.77;;;1.30;;
29500;SDS011;16450;50.288;10.966;2022-10-16T03:51:58;1.70;;;1.40;;
29500;SDS011;16450;50.288;10.966;2022-10-16T03:54:59;5.00;;;1.40;;
29500;SDS011;16450;50.288;10.966;2022-10-16T03:57:59;1.53;;;1.30;;
29500;SDS011;16450;50.288;10.966;2022-10-16T04:01:00;1.40;;;1.20;;
29500;SDS011;16450;50.288;10.966;2022-10-16T04:04:00;1.63;;;1.30;;
29500;SDS011;16450;50.288;10.966;2022-10-16T04:07:01;2.87;;;1.33;;
29500;SDS011;16450;50.288;10.966;2022-10-16T04:10:02;2.63;;;1.43;;
29500;SDS011;16450;50.288;10.966;2022-10-16T04:13:03;1.47;;;1.37;;
29500;SDS011;16450;50.288;10.966;2022-10-16T04:16:04;3.47;;;1.47;;
29500;SDS011;16450;50.288;10.966;2022-10-16T04:19:04;1.83;;;1.70;;
29500;SDS011;16450;50.288;10.966;2022-10-16T04:22:05;2.27;;;1.90;;
29500;SDS011;16450;50.288;10.966;2022-10-16T04:25:06;3.43;;;1.73;;
29500;SDS011;16450;50.288;10.966;2022-10-16T04:28:07;2.20;;;2.00;;
29500;SDS011;16450;50.288;10.966;2022-10-16T04:31:08;6.13;;;2.10;;
29500;SDS011;16450;50.288;10.966;2022-10-16T04:34:08;3.60;;;1.90;;
29500;SDS011;16450;50.288;10.966;2022-10-16T04:37:09;5.73;;;2.70;;
29500;SDS011;16450;50.288;10.966;2022-10-16T04:40:09;3.03;;;2.00;;
29500;SDS011;16450;50.288;10.966;2022-10-16T04:43:10;2.27;;;1.90;;
29500;SDS011;16450;50.288;10.966;2022-10-16T04:46:11;3.43;;;2.03;;
29500;SDS011;16450;50.288;10.966;2022-10-16T04:49:11;4.13;;;2.20;;
29500;SDS011;16450;50.288;10.966;2022-10-16T04:52:12;2.83;;;2.10;;
29500;SDS011;16450;50.288;10.966;2022-10-16T04:55:12;4.70;;;2.23;;
29500;SDS011;16450;50.288;10.966;2022-10-16T04:58:13;2.33;;;2.13;;
29500;SDS011;16450;50.288;10.966;2022-10-16T05:01:14;2.83;;;2.23;;
29500;SDS011;16450;50.288;10.966;2022-10-16T05:04:14;4.43;;;2.30;;
29500;SDS011;16450;50.288;10.966;2022-10-16T05:07:15;4.03;;;2.40;;
29500;SDS011;16450;50.288;10.966;2022-10-16T05:10:16;7.23;;;2.30;;
29500;SDS011;16450;50.288;10.966;2022-10-16T05:13:17;9.17;;;2.70;;
29500;SDS011;16450;50.288;10.966;2022-10-16T05:16:17;4.37;;;2.70;;
29500;SDS011;16450;50.288;10.966;2022-10-16T05:19:18;4.63;;;2.50;;
29500;SDS011;16450;50.288;10.966;2022-10-16T05:22:18;4.80;;;2.10;;
29500;SDS011;16450;50.288;10.966;2022-10-16T05:25:19;5.87;;;2.20;;
29500;SDS011;16450;50.288;10.966;2022-10-16T05:28:20;5.50;;;2.03;;
29500;SDS011;16450;50.288;10.966;2022-10-16T05:31:20;4.03;;;2.10;;
29500;SDS011;16450;50.288;10.966;2022-10-16T05:34:21;3.07;;;2.13;;
29500;SDS011;16450;50.288;10.966;2022-10-16T05:37:22;2.90;;;2.10;;
29500;SDS011;16450;50.288;10.966;2022-10-16T05:40:22;3.00;;;2.50;;
29500;SDS011;16450;50.288;10.966;2022-10-16T05:43:23;4.47;;;2.80;;
29500;SDS011;16450;50.288;10.966;2022-10-16T05:46:24;4.57;;;2.40;;
29500;SDS011;16450;50.288;10.966;2022-10-16T05:49:24;2.60;;;2.30;;
29500;SDS011;16450;50.288;10.966;2022-10-16T05:52:26;9.67;;;5.33;;
29500;SDS011;16450;50.288;10.966;2022-10-16T05:55:27;5.30;;;3.60;;
29500;SDS011;16450;50.288;10.966;2022-10-16T05:58:28;4.23;;;2.50;;
29500;SDS011;16450;50.288;10.966;2022-10-16T06:01:30;4.20;;;2.30;;
29500;SDS011;16450;50.288;10.966;2022-10-16T06:04:32;3.77;;;2.20;;
29500;SDS011;16450;50.288;10.966;2022-10-16T06:07:35;7.63;;;2.77;;
29500;SDS011;16450;50.288;10.966;2022-10-16T06:10:36;3.27;;;2.20;;
29500;SDS011;16450;50.288;10.966;2022-10-16T06:13:37;3.33;;;2.10;;
29500;SDS011;16450;50.288;10.966;2022-10-16T06:16:38;3.20;;;2.10;;
29500;SDS011;16450;50.288;10.966;2022-10-16T06:19:39;4.33;;;2.97;;
29500;SDS011;16450;50.288;10.966;2022-10-16T06:22:40;12.77;;;5.90;;
29500;SDS011;16450;50.288;10.966;2022-10-16T06:25:40;5.67;;;3.50;;
29500;SDS011;16450;50.288;10.966;2022-10-16T06:28:41;4.37;;;2.57;;
29500;SDS011;16450;50.288;10.966;2022-10-16T06:31:42;3.23;;;2.27;;
29500;SDS011;16450;50.288;10.966;2022-10-16T06:34:42;6.17;;;2.63;;
29500;SDS011;16450;50.288;10.966;2022-10-16T06:37:43;2.97;;;2.43;;
29500;SDS011;16450;50.288;10.966;2022-10-16T06:40:44;4.67;;;2.30;;
29500;SDS011;16450;50.288;10.966;2022-10-16T06:43:44;5.07;;;2.37;;
29500;SDS011;16450;50.288;10.966;2022-10-16T06:46:45;2.60;;;2.17;;
29500;SDS011;16450;50.288;10.966;2022-10-16T06:49:46;6.70;;;2.70;;
29500;SDS011;16450;50.288;10.966;2022-10-16T06:52:47;2.23;;;2.03;;
29500;SDS011;16450;50.288;10.966;2022-10-16T06:55:47;4.23;;;2.40;;
29500;SDS011;16450;50.288;10.966;2022-10-16T06:58:48;8.77;;;2.47;;
29500;SDS011;16450;50.288;10.966;2022-10-16T07:01:49;5.50;;;2.83;;
29500;SDS011;16450;50.288;10.966;2022-10-16T07:04:50;4.60;;;2.67;;
29500;SDS011;16450;50.288;10.966;2022-10-16T07:07:51;5.50;;;3.00;;
29500;SDS011;16450;50.288;10.966;2022-10-16T07:10:57;4.47;;;3.10;;
29500;SDS011;16450;50.288;10.966;2022-10-16T07:14:02;4.73;;;2.50;;
29500;SDS011;16450;50.288;10.966;2022-10-16T07:17:03;8.30;;;2.43;;
29500;SDS011;16450;50.288;10.966;2022-10-16T07:20:03;5.50;;;2.37;;
29500;SDS011;16450;50.288;10.966;2022-10-16T07:23:04;2.60;;;2.00;;
29500;SDS011;16450;50.288;10.966;2022-10-16T07:26:05;4.60;;;2.50;;
29500;SDS011;16450;50.288;10.966;2022-10-16T07:29:08;5.07;;;3.20;;
29500;SDS011;16450;50.288;10.966;2022-10-16T07:32:13;5.53;;;2.80;;
29500;SDS011;16450;50.288;10.966;2022-10-16T07:35:14;7.43;;;3.17;;
29500;SDS011;16450;50.288;10.966;2022-10-16T07:38:14;5.30;;;2.93;;
29500;SDS011;16450;50.288;10.966;2022-10-16T07:41:16;5.80;;;2.90;;
29500;SDS011;16450;50.288;10.966;2022-10-16T07:44:18;4.30;;;2.57;;
29500;SDS011;16450;50.288;10.966;2022-10-16T07:47:19;3.63;;;2.47;;
29500;SDS011;16450;50.288;10.966;2022-10-16T07:50:20;4.03;;;2.43;;
29500;SDS011;16450;50.288;10.966;2022-10-16T07:53:21;4.43;;;2.33;;
29500;SDS011;16450;50.288;10.966;2022-10-16T07:56:21;3.40;;;2.23;;
29500;SDS011;16450;50.288;10.966;2022-10-16T07:59:22;5.83;;;2.60;;
29500;SDS011;16450;50.288;10.966;2022-10-16T08:02:23;3.97;;;2.63;;
29500;SDS011;16450;50.288;10.966;2022-10-16T08:05:24;5.40;;;2.40;;
29500;SDS011;16450;50.288;10.966;2022-10-16T08:08:24;5.10;;;2.70;;
29500;SDS011;16450;50.288;10.966;2022-10-16T08:11:26;3.03;;;2.00;;
29500;SDS011;16450;50.288;10.966;2022-10-16T08:14:26;6.60;;;2.30;;
29500;SDS011;16450;50.288;10.966;2022-10-16T08:17:27;4.47;;;2.60;;
29500;SDS011;16450;50.288;10.966;2022-10-16T08:20:28;3.80;;;2.23;;
29500;SDS011;16450;50.288;10.966;2022-10-16T08:23:29;3.30;;;2.30;;
29500;SDS011;16450;50.288;10.966;2022-10-16T08:26:30;3.17;;;2.00;;
29500;SDS011;16450;50.288;10.966;2022-10-16T08:29:31;7.40;;;2.10;;
29500;SDS011;16450;50.288;10.966;2022-10-16T08:32:31;5.33;;;1.90;;
29500;SDS011;16450;50.288;10.966;2022-10-16T08:35:32;5.33;;;1.67;;
29500;SDS011;16450;50.288;10.966;2022-10-16T08:38:33;2.50;;;1.83;;
29500;SDS011;16450;50.288;10.966;2022-10-16T08:42:08;3.70;;;1.73;;
29500;SDS011;16450;50.288;10.966;2022-10-16T08:45:21;4.53;;;1.93;;
29500;SDS011;16450;50.288;10.966;2022-10-16T08:48:54;2.57;;;1.80;;
29500;SDS011;16450;50.288;10.966;2022-10-16T08:51:57;3.37;;;1.70;;
29500;SDS011;16450;50.288;10.966;2022-10-16T08:54:58;3.93;;;1.50;;
29500;SDS011;16450;50.288;10.966;2022-10-16T08:57:58;3.27;;;1.70;;
29500;SDS011;16450;50.288;10.966;2022-10-16T09:01:00;4.83;;;1.70;;
29500;SDS011;16450;50.288;10.966;2022-10-16T09:07:31;4.37;;;1.90;;
29500;SDS011;16450;50.288;10.966;2022-10-16T09:10:41;4.00;;;1.63;;
29500;SDS011;16450;50.288;10.966;2022-10-16T09:23:45;3.80;;;2.80;;
29500;SDS011;16450;50.288;10.966;2022-10-16T09:26:47;3.80;;;2.00;;
29500;SDS011;16450;50.288;10.966;2022-10-16T09:29:48;4.40;;;2.10;;
29500;SDS011;16450;50.288;10.966;2022-10-16T09:32:50;3.90;;;2.70;;
29500;SDS011;16450;50.288;10.966;2022-10-16T09:35:53;4.17;;;2.20;;
29500;SDS011;16450;50.288;10.966;2022-10-16T09:39:06;2.60;;;2.00;;
29500;SDS011;16450;50.288;10.966;2022-10-16T09:42:10;2.07;;;1.77;;
29500;SDS011;16450;50.288;10.966;2022-10-16T09:45:23;2.80;;;2.03;;
29500;SDS011;16450;50.288;10.966;2022-10-16T09:48:25;2.83;;;1.83;;
29500;SDS011;16450;50.288;10.966;2022-10-16T09:52:05;2.30;;;1.70;;
29500;SDS011;16450;50.288;10.966;2022-10-16T09:55:13;2.53;;;2.00;;
29500;SDS011;16450;50.288;10.966;2022-10-16T09:58:16;2.20;;;1.50;;
29500;SDS011;16450;50.288;10.966;2022-10-16T10:01:16;1.97;;;1.40;;
29500;SDS011;16450;50.288;10.966;2022-10-16T10:04:21;3.10;;;1.50;;
29500;SDS011;16450;50.288;10.966;2022-10-16T10:07:24;2.87;;;1.60;;
29500;SDS011;16450;50.288;10.966;2022-10-16T10:10:41;3.90;;;1.50;;
29500;SDS011;16450;50.288;10.966;2022-10-16T10:13:43;2.60;;;1.53;;
29500;SDS011;16450;50.288;10.966;2022-10-16T10:16:44;3.13;;;1.50;;
29500;SDS011;16450;50.288;10.966;2022-10-16T10:19:58;3.40;;;1.53;;
29500;SDS011;16450;50.288;10.966;2022-10-16T10:23:22;3.40;;;1.70;;
29500;SDS011;16450;50.288;10.966;2022-10-16T10:26:26;2.60;;;1.30;;
29500;SDS011;16450;50.288;10.966;2022-10-16T10:29:31;2.80;;;1.50;;
29500;SDS011;16450;50.288;10.966;2022-10-16T10:36:29;2.77;;;1.23;;
29500;SDS011;16450;50.288;10.966;2022-10-16T10:39:39;3.43;;;1.23;;
29500;SDS011;16450;50.288;10.966;2022-10-16T10:43:09;1.50;;;1.40;;
29500;SDS011;16450;50.288;10.966;2022-10-16T10:46:20;2.27;;;1.30;;
29500;SDS011;16450;50.288;10.966;2022-10-16T10:49:37;2.20;;;2.00;;
29500;SDS011;16450;50.288;10.966;2022-10-16T10:56:14;2.27;;;2.07;;
29500;SDS011;16450;50.288;10.966;2022-10-16T11:06:18;4.53;;;2.40;;
29500;SDS011;16450;50.288;10.966;2022-10-16T11:09:25;4.37;;;2.57;;
29500;SDS011;16450;50.288;10.966;2022-10-16T11:12:38;1.83;;;1.63;;
29500;SDS011;16450;50.288;10.966;2022-10-16T11:15:47;6.63;;;1.70;;
29500;SDS011;16450;50.288;10.966;2022-10-16T11:22:36;1.67;;;1.50;;
29500;SDS011;16450;50.288;10.966;2022-10-16T11:25:41;7.17;;;1.80;;
29500;SDS011;16450;50.288;10.966;2022-10-16T11:28:50;5.53;;;2.40;;
29500;SDS011;16450;50.288;10.966;2022-10-16T11:31:55;3.77;;;1.90;;
29500;SDS011;16450;50.288;10.966;2022-10-16T11:35:02;3.63;;;2.10;;
29500;SDS011;16450;50.288;10.966;2022-10-16T11:38:15;3.97;;;2.00;;
29500;SDS011;16450;50.288;10.966;2022-10-16T11:41:35;5.70;;;2.30;;
29500;SDS011;16450;50.288;10.966;2022-10-16T11:44:44;5.73;;;2.30;;
29500;SDS011;16450;50.288;10.966;2022-10-16T11:47:58;3.10;;;2.30;;
29500;SDS011;16450;50.288;10.966;2022-10-16T11:54:32;2.67;;;2.40;;
29500;SDS011;16450;50.288;10.966;2022-10-16T11:57:43;3.23;;;2.43;;
29500;SDS011;16450;50.288;10.966;2022-10-16T12:00:51;4.47;;;2.60;;
29500;SDS011;16450;50.288;10.966;2022-10-16T12:07:17;4.43;;;2.47;;
29500;SDS011;16450;50.288;10.966;2022-10-16T12:10:23;3.10;;;2.20;;
29500;SDS011;16450;50.288;10.966;2022-10-16T12:13:28;3.10;;;2.10;;
29500;SDS011;16450;50.288;10.966;2022-10-16T12:16:29;5.87;;;2.30;;
29500;SDS011;16450;50.288;10.966;2022-10-16T12:19:30;2.83;;;2.10;;
29500;SDS011;16450;50.288;10.966;2022-10-16T12:22:31;4.57;;;2.43;;
29500;SDS011;16450;50.288;10.966;2022-10-16T12:25:36;3.03;;;1.80;;
29500;SDS011;16450;50.288;10.966;2022-10-16T12:28:46;5.27;;;2.17;;
29500;SDS011;16450;50.288;10.966;2022-10-16T12:31:48;4.67;;;2.03;;
29500;SDS011;16450;50.288;10.966;2022-10-16T12:34:50;3.20;;;1.60;;
29500;SDS011;16450;50.288;10.966;2022-10-16T12:37:51;1.43;;;1.20;;
29500;SDS011;16450;50.288;10.966;2022-10-16T12:41:00;4.10;;;1.10;;
29500;SDS011;16450;50.288;10.966;2022-10-16T12:44:05;1.33;;;1.20;;
29500;SDS011;16450;50.288;10.966;2022-10-16T12:50:36;2.30;;;1.30;;
29500;SDS011;16450;50.288;10.966;2022-10-16T12:53:40;3.10;;;1.83;;
29500;SDS011;16450;50.288;10.966;2022-10-16T13:20:12;3.17;;;1.10;;
29500;SDS011;16450;50.288;10.966;2022-10-16T13:23:22;4.13;;;1.00;;
29500;SDS011;16450;50.288;10.966;2022-10-16T13:29:53;1.63;;;1.00;;
29500;SDS011;16450;50.288;10.966;2022-10-16T13:33:03;2.03;;;1.60;;
29500;SDS011;16450;50.288;10.966;2022-10-16T13:36:18;2.67;;;1.50;;
29500;SDS011;16450;50.288;10.966;2022-10-16T13:39:28;2.00;;;1.20;;
29500;SDS011;16450;50.288;10.966;2022-10-16T13:42:30;3.40;;;1.53;;
29500;SDS011;16450;50.288;10.966;2022-10-16T13:45:30;3.03;;;1.90;;
29500;SDS011;16450;50.288;10.966;2022-10-16T13:48:32;6.87;;;2.47;;
29500;SDS011;16450;50.288;10.966;2022-10-16T13:51:34;4.57;;;2.53;;
29500;SDS011;16450;50.288;10.966;2022-10-16T13:54:34;2.83;;;1.70;;
29500;SDS011;16450;50.288;10.966;2022-10-16T13:57:35;3.33;;;1.63;;
29500;SDS011;16450;50.288;10.966;2022-10-16T14:00:35;2.67;;;1.67;;
29500;SDS011;16450;50.288;10.966;2022-10-16T14:03:36;3.33;;;1.70;;
29500;SDS011;16450;50.288;10.966;2022-10-16T14:06:41;2.97;;;1.33;;
29500;SDS011;16450;50.288;10.966;2022-10-16T14:09:47;1.93;;;1.40;;
29500;SDS011;16450;50.288;10.966;2022-10-16T14:13:00;2.83;;;1.77;;
29500;SDS011;16450;50.288;10.966;2022-10-16T14:16:07;3.03;;;1.93;;
29500;SDS011;16450;50.288;10.966;2022-10-16T14:19:15;2.67;;;2.10;;
29500;SDS011;16450;50.288;10.966;2022-10-16T14:22:30;3.63;;;2.30;;
29500;SDS011;16450;50.288;10.966;2022-10-16T14:25:36;3.77;;;2.33;;
29500;SDS011;16450;50.288;10.966;2022-10-16T14:28:37;2.97;;;2.47;;
29500;SDS011;16450;50.288;10.966;2022-10-16T14:31:40;3.60;;;2.40;;
29500;SDS011;16450;50.288;10.966;2022-10-16T14:34:42;2.77;;;2.10;;
29500;SDS011;16450;50.288;10.966;2022-10-16T14:37:54;4.47;;;1.97;;
29500;SDS011;16450;50.288;10.966;2022-10-16T14:40:56;5.07;;;3.03;;
29500;SDS011;16450;50.288;10.966;2022-10-16T14:44:02;3.73;;;2.23;;
29500;SDS011;16450;50.288;10.966;2022-10-16T14:47:07;2.53;;;2.00;;
29500;SDS011;16450;50.288;10.966;2022-10-16T14:50:13;3.13;;;2.10;;
29500;SDS011;16450;50.288;10.966;2022-10-16T14:53:13;6.27;;;2.10;;
29500;SDS011;16450;50.288;10.966;2022-10-16T14:56:16;4.47;;;1.80;;
29500;SDS011;16450;50.288;10.966;2022-10-16T14:59:26;3.37;;;2.07;;
29500;SDS011;16450;50.288;10.966;2022-10-16T15:02:34;4.83;;;3.37;;
29500;SDS011;16450;50.288;10.966;2022-10-16T15:05:36;3.60;;;3.03;;
29500;SDS011;16450;50.288;10.966;2022-10-16T15:08:37;6.43;;;4.60;;
29500;SDS011;16450;50.288;10.966;2022-10-16T15:11:38;8.97;;;5.93;;
29500;SDS011;16450;50.288;10.966;2022-10-16T15:14:39;7.60;;;4.40;;
29500;SDS011;16450;50.288;10.966;2022-10-16T15:17:40;6.63;;;3.90;;
29500;SDS011;16450;50.288;10.966;2022-10-16T15:20:40;13.40;;;10.33;;
29500;SDS011;16450;50.288;10.966;2022-10-16T15:23:41;14.60;;;13.03;;
29500;SDS011;16450;50.288;10.966;2022-10-16T15:26:42;9.10;;;7.43;;
29500;SDS011;16450;50.288;10.966;2022-10-16T15:29:42;4.50;;;4.00;;
29500;SDS011;16450;50.288;10.966;2022-10-16T15:32:43;5.67;;;3.60;;
29500;SDS011;16450;50.288;10.966;2022-10-16T15:35:47;5.23;;;3.97;;
29500;SDS011;16450;50.288;10.966;2022-10-16T15:38:49;4.93;;;3.87;;
29500;SDS011;16450;50.288;10.966;2022-10-16T15:41:49;8.00;;;5.03;;
29500;SDS011;16450;50.288;10.966;2022-10-16T15:44:53;5.73;;;3.30;;
29500;SDS011;16450;50.288;10.966;2022-10-16T15:47:53;5.13;;;2.50;;
29500;SDS011;16450;50.288;10.966;2022-10-16T15:50:54;2.40;;;2.17;;
29500;SDS011;16450;50.288;10.966;2022-10-16T15:53:58;2.90;;;2.30;;
29500;SDS011;16450;50.288;10.966;2022-10-16T15:57:01;6.20;;;4.37;;
29500;SDS011;16450;50.288;10.966;2022-10-16T16:00:02;6.77;;;3.60;;
29500;SDS011;16450;50.288;10.966;2022-10-16T16:03:03;4.87;;;2.90;;
29500;SDS011;16450;50.288;10.966;2022-10-16T16:06:04;2.90;;;2.37;;
29500;SDS011;16450;50.288;10.966;2022-10-16T16:09:06;5.87;;;2.73;;
29500;SDS011;16450;50.288;10.966;2022-10-16T16:12:07;4.93;;;2.27;;
29500;SDS011;16450;50.288;10.966;2022-10-16T16:15:08;4.10;;;2.20;;
29500;SDS011;16450;50.288;10.966;2022-10-16T16:18:09;3.87;;;2.27;;
29500;SDS011;16450;50.288;10.966;2022-10-16T16:21:11;2.03;;;1.83;;
29500;SDS011;16450;50.288;10.966;2022-10-16T16:24:12;5.17;;;2.37;;
29500;SDS011;16450;50.288;10.966;2022-10-16T16:27:13;5.30;;;2.20;;
29500;SDS011;16450;50.288;10.966;2022-10-16T16:30:13;7.73;;;4.27;;
29500;SDS011;16450;50.288;10.966;2022-10-16T16:33:14;6.23;;;3.47;;
29500;SDS011;16450;50.288;10.966;2022-10-16T16:36:15;7.53;;;3.13;;
29500;SDS011;16450;50.288;10.966;2022-10-16T16:39:15;5.07;;;3.23;;
29500;SDS011;16450;50.288;10.966;2022-10-16T16:42:16;5.63;;;3.60;;
29500;SDS011;16450;50.288;10.966;2022-10-16T16:45:17;5.63;;;4.13;;
29500;SDS011;16450;50.288;10.966;2022-10-16T16:48:18;5.93;;;4.03;;
29500;SDS011;16450;50.288;10.966;2022-10-16T16:51:18;8.23;;;6.23;;
29500;SDS011;16450;50.288;10.966;2022-10-16T16:54:19;10.23;;;5.20;;
29500;SDS011;16450;50.288;10.966;2022-10-16T16:57:20;13.10;;;6.47;;
29500;SDS011;16450;50.288;10.966;2022-10-16T17:00:21;7.13;;;5.30;;
29500;SDS011;16450;50.288;10.966;2022-10-16T17:03:22;5.93;;;4.47;;
29500;SDS011;16450;50.288;10.966;2022-10-16T17:06:24;9.17;;;6.30;;
29500;SDS011;16450;50.288;10.966;2022-10-16T17:09:27;8.47;;;6.17;;
29500;SDS011;16450;50.288;10.966;2022-10-16T17:12:29;8.30;;;5.07;;
29500;SDS011;16450;50.288;10.966;2022-10-16T17:15:30;6.47;;;5.67;;
29500;SDS011;16450;50.288;10.966;2022-10-16T17:18:30;8.53;;;4.57;;
29500;SDS011;16450;50.288;10.966;2022-10-16T17:21:32;4.37;;;3.83;;
29500;SDS011;16450;50.288;10.966;2022-10-16T17:24:33;6.07;;;4.97;;
29500;SDS011;16450;50.288;10.966;2022-10-16T17:27:34;10.37;;;8.47;;
29500;SDS011;16450;50.288;10.966;2022-10-16T17:30:35;5.50;;;4.10;;
29500;SDS011;16450;50.288;10.966;2022-10-16T17:33:37;6.60;;;4.27;;
29500;SDS011;16450;50.288;10.966;2022-10-16T17:36:38;6.43;;;4.80;;
29500;SDS011;16450;50.288;10.966;2022-10-16T17:39:43;6.53;;;5.50;;
29500;SDS011;16450;50.288;10.966;2022-10-16T17:42:43;7.50;;;4.93;;
29500;SDS011;16450;50.288;10.966;2022-10-16T17:45:44;9.33;;;6.63;;
29500;SDS011;16450;50.288;10.966;2022-10-16T17:48:46;19.40;;;12.93;;
29500;SDS011;16450;50.288;10.966;2022-10-16T17:51:51;14.97;;;10.13;;
29500;SDS011;16450;50.288;10.966;2022-10-16T17:54:53;8.67;;;5.67;;
29500;SDS011;16450;50.288;10.966;2022-10-16T17:57:53;6.70;;;4.63;;
29500;SDS011;16450;50.288;10.966;2022-10-16T18:00:54;6.67;;;3.90;;
29500;SDS011;16450;50.288;10.966;2022-10-16T18:03:56;5.30;;;3.97;;
29500;SDS011;16450;50.288;10.966;2022-10-16T18:07:15;5.50;;;3.40;;
29500;SDS011;16450;50.288;10.966;2022-10-16T18:10:16;5.90;;;4.30;;
29500;SDS011;16450;50.288;10.966;2022-10-16T18:13:17;6.00;;;4.70;;
29500;SDS011;16450;50.288;10.966;2022-10-16T18:16:17;7.47;;;4.60;;
29500;SDS011;16450;50.288;10.966;2022-10-16T18:19:18;4.07;;;3.50;;
29500;SDS011;16450;50.288;10.966;2022-10-16T18:22:19;5.37;;;4.27;;
29500;SDS011;16450;50.288;10.966;2022-10-16T18:25:20;5.40;;;3.10;;
29500;SDS011;16450;50.288;10.966;2022-10-16T18:28:22;4.20;;;3.20;;
29500;SDS011;16450;50.288;10.966;2022-10-16T18:31:23;8.37;;;3.20;;
29500;SDS011;16450;50.288;10.966;2022-10-16T18:34:27;6.10;;;4.57;;
29500;SDS011;16450;50.288;10.966;2022-10-16T18:37:28;7.80;;;3.83;;
29500;SDS011;16450;50.288;10.966;2022-10-16T18:40:28;4.37;;;3.57;;
29500;SDS011;16450;50.288;10.966;2022-10-16T18:43:29;5.97;;;3.73;;
29500;SDS011;16450;50.288;10.966;2022-10-16T18:46:31;3.63;;;3.20;;
29500;SDS011;16450;50.288;10.966;2022-10-16T18:49:31;4.33;;;3.23;;
29500;SDS011;16450;50.288;10.966;2022-10-16T18:52:32;14.37;;;8.43;;
29500;SDS011;16450;50.288;10.966;2022-10-16T18:55:32;12.07;;;6.90;;
29500;SDS011;16450;50.288;10.966;2022-10-16T18:58:34;8.13;;;4.73;;
29500;SDS011;16450;50.288;10.966;2022-10-16T19:01:35;6.07;;;3.70;;
29500;SDS011;16450;50.288;10.966;2022-10-16T19:04:39;3.57;;;3.27;;
29500;SDS011;16450;50.288;10.966;2022-10-16T19:07:40;4.93;;;3.73;;
29500;SDS011;16450;50.288;10.966;2022-10-16T19:10:44;4.43;;;3.80;;
29500;SDS011;16450;50.288;10.966;2022-10-16T19:13:45;3.90;;;3.20;;
29500;SDS011;16450;50.288;10.966;2022-10-16T19:16:47;7.37;;;5.00;;
29500;SDS011;16450;50.288;10.966;2022-10-16T19:19:48;5.93;;;4.63;;
29500;SDS011;16450;50.288;10.966;2022-10-16T19:22:49;7.67;;;5.13;;
29500;SDS011;16450;50.288;10.966;2022-10-16T19:26:05;12.77;;;6.40;;
29500;SDS011;16450;50.288;10.966;2022-10-16T19:29:08;8.83;;;6.13;;